Time;durP1;ratioP1;P1;durP2;ratioP2;P2;SDS_P1;SDS_P2;PMS_P1;PMS_P2;Temp;Humidity;BMP_temperature;BMP_pressure;BME280_temperature;BME280_humidity;BME280_pressure;Samples;Min_cycle;Max_cycle;Signal;HPM_P1;HPM_P2
2022/06/23 00:00:31;;;;;;;13.55;4.07;;;20.90;99.90;;;;;;6220551;23;20039;-80
2022/06/23 00:02:58;;;;;;;13.55;4.35;;;;;;;;;;6225235;23;20004;-79
2022/06/23 00:05:27;;;;;;;11.27;3.97;;;21.00;99.90;;;;;;6223087;23;20028;-79
2022/06/23 00:07:56;;;;;;;8.15;3.42;;;;;;;;;;6221603;23;20060;-79
2022/06/23 00:10:37;;;;;;;10.57;3.70;;;20.80;99.90;;;;;;6248208;23;20007;-79
2022/06/23 00:13:12;;;;;;;11.13;4.35;;;20.80;99.90;;;;;;6249038;22;20016;-79
2022/06/23 00:15:41;;;;;;;11.48;4.07;;;20.70;99.90;;;;;;6221537;23;20008;-79
2022/06/23 00:18:18;;;;;;;9.30;4.15;;;20.60;99.90;;;;;;6222426;23;20008;-79
2022/06/23 00:21:03;;;;;;;11.75;4.28;;;20.60;99.90;;;;;;6222371;23;20012;-79
2022/06/23 00:23:34;;;;;;;12.88;4.57;;;20.60;99.90;;;;;;6224449;23;20000;-79
2022/06/23 00:26:02;;;;;;;10.57;4.30;;;20.60;99.90;;;;;;6250488;23;20056;-80
2022/06/23 00:28:36;;;;;;;11.77;4.55;;;20.60;99.90;;;;;;6224534;23;20039;-81
2022/06/23 00:31:20;;;;;;;13.82;3.95;;;20.50;99.90;;;;;;6224974;23;20012;-80
2022/06/23 00:33:50;;;;;;;14.75;5.07;;;20.50;99.90;;;;;;6254683;22;20022;-81
2022/06/23 00:36:25;;;;;;;10.85;4.10;;;;;;;;;;6257016;23;20030;-81
2022/06/23 00:38:52;;;;;;;13.80;5.50;;;20.50;99.90;;;;;;6229517;23;20008;-80
2022/06/23 00:41:23;;;;;;;12.15;4.47;;;20.40;99.90;;;;;;6225953;23;20027;-80
2022/06/23 00:44:00;;;;;;;12.82;5.82;;;20.40;99.90;;;;;;6225508;23;20003;-80
2022/06/23 00:46:31;;;;;;;12.95;4.68;;;20.40;99.90;;;;;;6224221;23;20011;-80
2022/06/23 00:49:30;;;;;;;10.65;4.15;;;20.30;99.90;;;;;;6225250;23;20004;-80
2022/06/23 00:52:09;;;;;;;12.77;3.80;;;20.30;99.90;;;;;;6223826;23;20000;-79
2022/06/23 00:54:42;;;;;;;11.70;3.50;;;20.30;99.90;;;;;;6224674;23;20011;-80
2022/06/23 00:57:48;;;;;;;11.48;4.00;;;20.20;99.90;;;;;;6251544;23;20012;-80
2022/06/23 01:00:24;;;;;;;9.77;3.97;;;20.20;99.90;;;;;;6132755;23;20008;-79
2022/06/23 01:03:18;;;;;;;14.68;4.03;;;20.20;99.90;;;;;;6214112;23;20004;-80
2022/06/23 01:05:56;;;;;;;14.02;4.10;;;20.20;99.90;;;;;;6246460;23;20038;-79
2022/06/23 01:08:45;;;;;;;11.43;6.43;;;20.20;99.90;;;;;;6223914;23;20004;-79
2022/06/23 01:11:23;;;;;;;18.77;8.30;;;20.10;99.90;;;;;;6221374;23;20023;-79
2022/06/23 01:14:18;;;;;;;10.38;4.15;;;20.00;99.90;;;;;;6221963;23;20039;-79
2022/06/23 01:16:44;;;;;;;10.82;5.65;;;;;;;;;;6202410;23;20019;-80
2022/06/23 01:19:29;;;;;;;14.73;7.38;;;19.90;99.90;;;;;;6222582;23;20043;-80
2022/06/23 01:22:00;;;;;;;14.07;5.00;;;19.90;99.90;;;;;;6221967;23;20316;-78
2022/06/23 01:24:51;;;;;;;10.55;4.45;;;19.90;99.90;;;;;;6222082;23;20004;-79
2022/06/23 01:27:55;;;;;;;11.05;4.68;;;19.90;99.90;;;;;;6223320;23;20465;-79
2022/06/23 01:30:25;;;;;;;10.68;4.55;;;19.80;99.90;;;;;;6218518;23;20019;-80
2022/06/23 01:33:03;;;;;;;;;;;19.80;99.90;;;;;;6248028;22;20065;-79
2022/06/23 01:35:43;;;;;;;17.25;5.60;;;19.80;99.90;;;;;;6220315;23;19900;-80
2022/06/23 01:38:38;;;;;;;13.75;5.15;;;19.70;99.90;;;;;;6224034;23;20031;-80
2022/06/23 01:41:32;;;;;;;11.82;4.70;;;19.60;99.90;;;;;;6179305;23;20449;-79
2022/06/23 01:44:28;;;;;;;12.38;4.65;;;19.60;99.90;;;;;;6221775;23;20008;-79
2022/06/23 01:46:58;;;;;;;15.75;6.15;;;19.60;99.90;;;;;;6250913;23;20023;-79
2022/06/23 01:49:39;;;;;;;10.38;4.47;;;19.50;99.90;;;;;;6226350;23;20445;-80
2022/06/23 01:52:10;;;;;;;15.73;6.38;;;19.50;99.90;;;;;;6253340;23;20060;-79
2022/06/23 01:54:38;;;;;;;10.95;4.82;;;19.50;99.90;;;;;;6225979;23;20129;-79
2022/06/23 01:57:29;;;;;;;12.57;5.40;;;19.50;99.90;;;;;;6251837;23;20054;-79
2022/06/23 02:00:00;;;;;;;10.88;4.90;;;19.50;99.90;;;;;;6224234;23;20004;-80
2022/06/23 02:02:48;;;;;;;16.58;5.95;;;19.40;99.90;;;;;;6252579;22;20001;-79
2022/06/23 02:05:40;;;;;;;15.10;5.32;;;19.50;99.90;;;;;;6221993;23;20326;-79
2022/06/23 02:08:45;;;;;;;14.60;5.22;;;19.40;99.90;;;;;;6223351;23;20043;-79
2022/06/23 02:11:30;;;;;;;11.93;5.22;;;19.40;99.90;;;;;;6222746;23;20383;-79
2022/06/23 02:14:19;;;;;;;13.45;6.28;;;19.40;99.90;;;;;;6195726;23;20016;-78
2022/06/23 02:16:57;;;;;;;12.05;4.75;;;19.30;99.90;;;;;;6224249;23;20008;-79
2022/06/23 02:19:46;;;;;;;10.32;4.90;;;19.40;99.90;;;;;;6223415;23;20008;-79
2022/06/23 02:22:36;;;;;;;12.77;5.35;;;18.50;99.90;;;;;;6251474;22;20004;-78
2022/06/23 02:25:18;;;;;;;12.13;5.75;;;19.30;99.90;;;;;;6226079;23;20008;-79
2022/06/23 02:27:52;;;;;;;9.30;5.00;;;19.20;99.90;;;;;;6252615;23;20000;-79
2022/06/23 02:30:31;;;;;;;12.10;5.03;;;19.20;99.90;;;;;;6224879;23;20027;-79
2022/06/23 02:33:04;;;;;;;11.45;5.20;;;19.20;99.90;;;;;;6252322;22;20000;-79
2022/06/23 02:35:56;;;;;;;10.82;5.85;;;19.20;99.90;;;;;;6225135;23;20011;-80
2022/06/23 02:38:35;;;;;;;12.60;5.43;;;19.10;99.90;;;;;;6178924;23;20012;-80
2022/06/23 02:41:41;;;;;;;11.43;5.72;;;19.20;99.90;;;;;;6248439;23;20015;-79
2022/06/23 02:44:21;;;;;;;9.20;5.82;;;19.20;99.90;;;;;;6132008;23;20001;-79
2022/06/23 02:46:58;;;;;;;13.07;5.70;;;19.20;99.90;;;;;;6215817;23;20039;-79
2022/06/23 02:49:55;;;;;;;11.93;5.93;;;19.20;99.90;;;;;;6249429;23;20026;-79
2022/06/23 02:52:36;;;;;;;12.25;5.65;;;19.20;99.90;;;;;;6251635;22;20055;-79
2022/06/23 02:55:41;;;;;;;11.68;5.82;;;19.10;99.90;;;;;;6226485;23;20000;-81
2022/06/23 02:58:15;;;;;;;13.07;5.53;;;19.10;99.90;;;;;;6227905;23;20007;-79
2022/06/23 03:00:59;;;;;;;15.48;5.85;;;19.10;99.90;;;;;;6229492;23;20014;-81
2022/06/23 03:03:40;;;;;;;14.10;5.60;;;19.10;99.90;;;;;;6230810;23;20000;-80
2022/06/23 03:06:31;;;;;;;10.82;5.53;;;19.10;99.90;;;;;;6223653;23;20058;-80
2022/06/23 03:09:05;;;;;;;13.85;6.18;;;19.00;99.90;;;;;;6244837;23;20007;-79
2022/06/23 03:11:55;;;;;;;12.48;5.65;;;19.00;99.90;;;;;;6217022;23;20167;-79
2022/06/23 03:14:46;;;;;;;10.57;5.68;;;19.00;99.90;;;;;;6245690;22;20031;-79
2022/06/23 03:17:19;;;;;;;13.32;6.35;;;19.00;99.90;;;;;;6216853;23;20012;-80
2022/06/23 03:20:23;;;;;;;12.77;5.53;;;19.00;99.90;;;;;;6217818;23;20034;-79
2022/06/23 03:23:09;;;;;;;10.75;5.70;;;19.00;99.90;;;;;;6218232;23;20008;-79
2022/06/23 03:25:59;;;;;;;12.57;6.43;;;19.00;99.90;;;;;;6245389;23;20000;-79
2022/06/23 03:28:43;;;;;;;14.90;6.40;;;19.00;99.90;;;;;;6218079;23;20004;-78
2022/06/23 03:31:22;;;;;;;12.32;5.55;;;18.90;99.90;;;;;;6244891;23;20486;-80
2022/06/23 03:34:02;;;;;;;12.70;6.30;;;18.90;99.90;;;;;;6194592;23;20012;-79
2022/06/23 03:36:39;;;;;;;13.82;7.38;;;18.90;99.90;;;;;;6217737;23;20404;-80
2022/06/23 03:42:15;;;;;;;13.65;6.00;;;18.90;99.90;;;;;;6244512;23;20040;-79
2022/06/23 03:45:07;;;;;;;14.35;5.57;;;18.90;99.90;;;;;;6243015;23;20084;-79
2022/06/23 03:47:50;;;;;;;12.70;5.70;;;18.90;99.90;;;;;;6198481;23;20004;-79
2022/06/23 03:50:25;;;;;;;11.60;5.32;;;19.00;99.90;;;;;;6215459;23;20004;-79
2022/06/23 03:53:30;;;;;;;9.77;5.55;;;19.00;99.90;;;;;;6218495;23;20027;-79
2022/06/23 03:56:02;;;;;;;13.00;6.18;;;19.00;99.90;;;;;;6217012;23;20000;-78
2022/06/23 03:58:27;;;;;;;11.55;5.13;;;19.00;99.90;;;;;;6217163;23;20000;-79
2022/06/23 04:01:05;;;;;;;10.18;5.15;;;19.00;99.90;;;;;;6216520;23;20012;-80
2022/06/23 04:03:37;;;;;;;9.75;5.60;;;18.90;99.90;;;;;;6218915;23;20061;-79
2022/06/23 04:06:58;;;;;;;10.50;5.13;;;18.90;99.90;;;;;;6218786;23;20012;-79
2022/06/23 04:09:29;;;;;;;15.13;5.90;;;18.90;99.90;;;;;;6126828;23;20032;-79
2022/06/23 04:12:11;;;;;;;14.32;6.28;;;18.90;99.90;;;;;;6219052;22;20027;-80
2022/06/23 04:14:50;;;;;;;11.63;6.43;;;18.90;99.90;;;;;;6218506;23;20043;-79
2022/06/23 04:17:27;;;;;;;13.67;7.27;;;18.90;99.90;;;;;;6219403;23;20018;-80
2022/06/23 04:20:01;;;;;;;15.48;6.80;;;18.80;99.90;;;;;;6220680;23;20341;-79
2022/06/23 04:22:38;;;;;;;13.30;6.90;;;18.90;99.90;;;;;;6218569;23;20016;-80
2022/06/23 04:25:07;;;;;;;13.65;6.60;;;18.90;99.90;;;;;;6219993;23;20008;-80
2022/06/23 04:27:58;;;;;;;9.57;6.30;;;19.00;99.90;;;;;;6215495;23;20042;-79
2022/06/23 04:30:27;;;;;;;12.65;6.05;;;19.00;99.90;;;;;;6216311;23;20012;-80
2022/06/23 04:32:56;;;;;;;12.05;6.30;;;19.00;99.90;;;;;;6216166;23;20015;-80
2022/06/23 04:35:36;;;;;;;12.95;6.93;;;19.00;99.90;;;;;;6216998;23;20005;-79
2022/06/23 04:38:11;;;;;;;15.10;7.10;;;19.00;99.90;;;;;;6246437;23;20031;-80
2022/06/23 04:40:43;;;;;;;14.60;7.43;;;19.10;99.90;;;;;;6219101;23;20091;-79
2022/06/23 04:43:20;;;;;;;10.95;6.97;;;19.10;99.90;;;;;;6218838;23;20011;-79
2022/06/23 04:45:51;;;;;;;12.23;6.88;;;;;;;;;;6190687;23;20141;-80
2022/06/23 04:48:24;;;;;;;15.23;7.07;;;19.20;99.90;;;;;;6190527;23;20055;-80
2022/06/23 04:51:05;;;;;;;13.55;7.82;;;19.20;99.90;;;;;;6190924;23;20030;-81
2022/06/23 04:53:54;;;;;;;12.30;6.68;;;19.30;99.90;;;;;;6189410;23;20004;-80
2022/06/23 04:56:32;;;;;;;12.98;6.13;;;19.20;99.90;;;;;;6190063;23;20019;-80
2022/06/23 04:59:08;;;;;;;11.23;6.00;;;;;;;;;;6190992;23;20008;-81
2022/06/23 05:01:40;;;;;;;13.75;6.53;;;19.40;99.90;;;;;;6192981;23;20394;-81
2022/06/23 05:04:20;;;;;;;14.55;8.13;;;19.50;99.90;;;;;;6219812;23;20020;-82
2022/06/23 05:06:49;;;;;;;13.73;7.78;;;;;;;;;;6189507;23;20036;-81
2022/06/23 05:09:39;;;;;;;17.45;8.30;;;19.80;99.90;;;;;;6219896;23;20023;-82
2022/06/23 05:12:27;;;;;;;15.85;7.55;;;;;;;;;;6221102;23;20012;-82
2022/06/23 05:14:59;;;;;;;16.40;7.53;;;;;;;;;;6193086;23;20009;-82
2022/06/23 05:17:31;;;;;;;16.17;7.55;;;20.10;99.90;;;;;;6223056;23;20047;-82
2022/06/23 05:20:28;;;;;;;14.73;7.22;;;20.30;99.90;;;;;;6222567;23;20100;-81
2022/06/23 05:23:02;;;;;;;11.38;6.50;;;20.90;99.90;;;;;;6218685;23;20020;-80
2022/06/23 05:25:47;;;;;;;12.35;6.47;;;21.50;99.90;;;;;;6198499;23;20008;-81
2022/06/23 05:28:31;;;;;;;11.98;5.32;;;22.10;99.90;;;;;;6225959;23;20343;-81
2022/06/23 05:31:03;;;;;;;10.52;5.40;;;22.80;99.90;;;;;;6199161;23;20012;-81
2022/06/23 05:33:55;;;;;;;11.50;5.60;;;22.80;99.90;;;;;;6218463;23;20043;-84
2022/06/23 05:36:35;;;;;;;9.18;4.78;;;23.80;99.90;;;;;;6193505;23;20043;-83
2022/06/23 05:39:20;;;;;;;11.27;8.65;;;24.50;99.90;;;;;;6194693;23;20013;-83
2022/06/23 05:41:54;;;;;;;12.13;4.82;;;24.90;99.90;;;;;;6223714;23;20009;-84
2022/06/23 05:44:28;;;;;;;15.30;5.78;;;24.90;99.90;;;;;;6227378;23;20032;-84
2022/06/23 05:46:58;;;;;;;11.07;4.88;;;24.90;99.90;;;;;;6192321;23;20076;-85
2022/06/23 05:49:30;;;;;;;12.32;6.03;;;24.90;99.90;;;;;;6189678;23;20014;-85
2022/06/23 05:52:21;;;;;;;9.23;4.65;;;24.90;99.90;;;;;;6191795;23;20461;-85
2022/06/23 05:55:05;;;;;;;8.50;4.78;;;25.60;99.90;;;;;;6191095;23;20012;-84
2022/06/23 05:57:37;;;;;;;17.25;5.60;;;25.70;99.90;;;;;;6189956;23;20004;-83
2022/06/23 06:00:29;;;;;;;8.25;4.53;;;26.50;99.90;;;;;;6188772;23;20028;-84
2022/06/23 06:03:06;;;;;;;8.13;3.90;;;26.70;99.90;;;;;;6168939;23;20009;-83
2022/06/23 06:05:43;;;;;;;11.48;4.05;;;26.80;99.90;;;;;;6186621;23;20099;-84
2022/06/23 06:08:25;;;;;;;10.13;3.45;;;26.80;99.90;;;;;;6190647;23;20036;-83
2022/06/23 06:10:52;;;;;;;6.82;3.65;;;26.60;99.90;;;;;;6212769;23;20435;-82
2022/06/23 06:13:23;;;;;;;9.10;3.75;;;26.70;99.90;;;;;;6186503;23;20087;-84
2022/06/23 06:15:52;;;;;;;8.50;3.42;;;27.30;99.50;;;;;;6185092;23;20044;-83
2022/06/23 06:18:47;;;;;;;;;;;27.30;99.70;;;;;;6211784;23;20005;-83
2022/06/23 06:21:16;;;;;;;7.75;3.38;;;26.90;99.80;;;;;;6181992;23;19914;-83
2022/06/23 06:24:17;;;;;;;8.73;3.55;;;26.80;99.10;;;;;;6164504;23;20533;-83
2022/06/23 06:26:48;;;;;;;11.73;3.30;;;26.70;99.90;;;;;;6135276;23;20044;-83
2022/06/23 06:29:16;;;;;;;9.77;3.20;;;26.50;99.50;;;;;;6191662;23;20004;-83
2022/06/23 06:31:52;;;;;;;9.68;3.35;;;26.20;99.70;;;;;;6188718;23;20231;-81
2022/06/23 06:34:24;;;;;;;8.55;3.20;;;26.10;99.80;;;;;;6189656;23;20015;-83
2022/06/23 06:36:52;;;;;;;8.25;2.80;;;25.80;99.90;;;;;;6190624;23;20015;-84
2022/06/23 06:39:38;;;;;;;8.52;3.38;;;24.90;99.90;;;;;;6190110;23;20032;-83
2022/06/23 06:42:05;;;;;;;8.43;3.40;;;25.20;99.90;;;;;;6190777;23;20017;-83
2022/06/23 06:44:34;;;;;;;9.85;3.17;;;25.30;99.90;;;;;;6190682;23;20012;-84
2022/06/23 06:47:00;;;;;;;5.75;2.65;;;24.80;99.90;;;;;;6193351;23;20004;-82
2022/06/23 06:49:31;;;;;;;6.78;2.78;;;24.80;99.90;;;;;;6194163;23;20011;-82
2022/06/23 06:51:58;;;;;;;7.15;3.30;;;24.90;99.90;;;;;;6217932;23;20000;-82
2022/06/23 06:54:43;;;;;;;8.38;3.28;;;24.90;99.90;;;;;;6191447;23;19997;-82
2022/06/23 06:57:16;;;;;;;9.35;3.13;;;24.70;99.90;;;;;;6191035;23;20031;-82
2022/06/23 06:59:42;;;;;;;8.50;3.00;;;;;;;;;;6189135;23;20435;-83
2022/06/23 07:02:19;;;;;;;10.95;3.20;;;24.50;99.90;;;;;;6190436;23;20043;-81
2022/06/23 07:05:11;;;;;;;8.98;3.45;;;24.50;99.90;;;;;;6203005;23;20007;-82
2022/06/23 07:07:43;;;;;;;10.82;2.88;;;24.10;99.90;;;;;;6216803;23;20008;-81
2022/06/23 07:10:34;;;;;;;10.63;3.35;;;23.80;99.90;;;;;;6233550;23;20007;-81
2022/06/23 07:13:08;;;;;;;8.23;3.42;;;23.90;99.90;;;;;;6203832;23;20042;-82
2022/06/23 07:15:48;;;;;;;10.85;3.50;;;23.90;99.90;;;;;;6230912;23;20004;-81
2022/06/23 07:18:28;;;;;;;12.93;3.35;;;24.10;99.90;;;;;;6227295;23;20013;-82
2022/06/23 07:21:01;;;;;;;7.88;3.05;;;;;;;;;;6202772;23;20037;-81
2022/06/23 07:23:52;;;;;;;11.40;3.80;;;24.20;99.90;;;;;;6201771;23;20005;-82
2022/06/23 07:26:48;;;;;;;8.32;3.25;;;24.20;99.90;;;;;;6200928;23;20001;-82
2022/06/23 07:29:28;;;;;;;11.95;3.60;;;24.20;99.90;;;;;;6224244;23;20431;-81
2022/06/23 07:31:54;;;;;;;11.53;2.93;;;;;;;;;;6198531;23;20019;-81
2022/06/23 07:34:25;;;;;;;7.93;2.70;;;24.50;99.90;;;;;;6228080;23;20228;-82
2022/06/23 07:36:59;;;;;;;12.55;5.18;;;24.50;99.90;;;;;;6200212;23;20034;-81
2022/06/23 07:39:35;;;;;;;9.20;3.22;;;24.50;99.90;;;;;;6201636;23;20013;-81
2022/06/23 07:42:24;;;;;;;9.90;2.60;;;24.70;99.90;;;;;;6201423;23;20004;-82
2022/06/23 07:44:56;;;;;;;9.47;2.70;;;24.70;99.90;;;;;;6155905;23;20043;-81
2022/06/23 07:47:22;;;;;;;7.18;2.38;;;24.80;99.90;;;;;;6227618;23;20012;-81
2022/06/23 07:49:49;;;;;;;6.43;2.55;;;;;;;;;;6200621;23;20032;-82
2022/06/23 07:52:17;;;;;;;9.30;2.58;;;24.80;99.90;;;;;;6225915;23;20327;-82
2022/06/23 07:54:49;;;;;;;8.70;3.38;;;;;;;;;;6198604;23;20012;-82
2022/06/23 07:57:15;;;;;;;8.15;3.40;;;;;;;;;;6225256;23;20004;-81
2022/06/23 07:59:58;;;;;;;11.07;3.45;;;25.40;99.90;;;;;;6199562;23;20029;-81
2022/06/23 08:02:39;;;;;;;10.45;3.25;;;25.50;99.90;;;;;;6224826;23;20000;-81
2022/06/23 08:05:23;;;;;;;9.73;3.05;;;25.70;99.90;;;;;;6225357;23;20072;-81
2022/06/23 08:07:49;;;;;;;7.65;2.85;;;;;;;;;;6199116;23;20008;-81
2022/06/23 08:10:23;;;;;;;9.65;3.03;;;25.50;99.90;;;;;;6225543;23;20067;-81
2022/06/23 08:13:06;;;;;;;9.52;3.03;;;25.60;99.90;;;;;;6204397;23;20015;-81
2022/06/23 08:18:34;;;;;;;14.27;3.45;;;25.50;99.90;;;;;;6225167;23;20070;-81
2022/06/23 08:21:17;;;;;;;10.10;2.92;;;25.50;99.90;;;;;;6224514;23;20005;-82
2022/06/23 08:23:49;;;;;;;13.35;3.97;;;;;;;;;;6200104;23;20012;-81
2022/06/23 08:26:16;;;;;;;12.48;2.83;;;;;;;;;;6225004;23;19996;-81
2022/06/23 08:28:44;;;;;;;8.43;2.70;;;25.70;99.90;;;;;;6226798;23;20059;-81
2022/06/23 08:31:11;;;;;;;7.57;2.78;;;;;;;;;;6198702;23;20343;-82
2022/06/23 08:33:38;;;;;;;10.25;4.38;;;25.70;99.90;;;;;;6227437;23;20000;-82
2022/06/23 08:36:14;;;;;;;12.57;3.25;;;25.70;99.90;;;;;;6227754;23;20013;-81
2022/06/23 08:39:04;;;;;;;13.43;2.97;;;25.70;99.90;;;;;;6230735;23;20005;-82
2022/06/23 08:41:59;;;;;;;9.63;2.75;;;25.80;99.90;;;;;;6201112;23;20008;-81
2022/06/23 08:45:11;;;;;;;11.38;3.33;;;26.00;99.90;;;;;;6204617;23;20001;-82
2022/06/23 08:47:49;;;;;;;8.57;3.13;;;26.00;99.90;;;;;;6159394;23;20060;-81
2022/06/23 08:50:40;;;;;;;8.27;2.50;;;26.20;99.90;;;;;;6205711;23;20005;-82
2022/06/23 08:53:36;;;;;;;10.20;2.67;;;26.20;99.90;;;;;;6230753;23;20003;-82
2022/06/23 08:56:03;;;;;;;8.82;2.90;;;;;;;;;;6199882;23;20011;-81
2022/06/23 08:58:52;;;;;;;8.88;2.83;;;26.10;99.90;;;;;;6228797;23;19992;-82
2022/06/23 09:01:53;;;;;;;11.23;3.25;;;26.30;99.90;;;;;;6198202;23;20005;-82
2022/06/23 09:05:11;;;;;;;11.63;3.08;;;26.60;99.90;;;;;;6197766;23;20467;-81
2022/06/23 09:07:56;;;;;;;7.75;2.95;;;;;;;;;;6156075;23;20005;-79
2022/06/23 09:10:22;;;;;;;9.75;2.90;;;;;;;;;;6198044;23;20001;-80
2022/06/23 09:12:57;;;;;;;13.18;2.92;;;26.80;99.90;;;;;;6196852;23;20005;-80
2022/06/23 09:15:43;;;;;;;10.30;2.65;;;26.90;99.90;;;;;;6196000;23;20008;-80
2022/06/23 09:18:22;;;;;;;10.60;3.15;;;27.10;99.90;;;;;;6192996;23;20427;-80
2022/06/23 09:21:00;;;;;;;9.95;2.72;;;27.00;99.70;;;;;;6190401;23;20335;-82
2022/06/23 09:23:47;;;;;;;13.25;3.25;;;27.30;99.50;;;;;;6220877;23;20004;-81
2022/06/23 09:26:30;;;;;;;9.77;3.08;;;27.40;98.60;;;;;;6221922;23;20012;-81
2022/06/23 09:29:03;;;;;;;9.93;2.50;;;27.80;97.70;;;;;;6227658;23;20000;-80
2022/06/23 09:31:43;;;;;;;8.73;2.50;;;27.80;97.20;;;;;;6196357;23;20010;-81
2022/06/23 09:34:43;;;;;;;9.40;2.63;;;27.80;97.20;;;;;;6199403;23;20016;-79
2022/06/23 09:37:27;;;;;;;9.93;3.05;;;;;;;;;;6228191;23;20104;-80
2022/06/23 09:39:53;;;;;;;9.18;2.15;;;;;;;;;;6203348;23;20015;-80
2022/06/23 09:42:38;;;;;;;10.02;2.47;;;27.50;97.40;;;;;;6201022;23;20004;-81
2022/06/23 09:45:41;;;;;;;8.38;2.25;;;27.40;97.60;;;;;;6195346;23;19996;-79
2022/06/23 09:48:30;;;;;;;8.45;3.10;;;27.20;97.50;;;;;;6195597;23;20001;-82
2022/06/23 09:50:56;;;;;;;7.90;2.45;;;;;;;;;;6223184;23;20001;-79
2022/06/23 09:53:31;;;;;;;13.20;2.85;;;27.90;96.80;;;;;;6195642;23;20011;-82
2022/06/23 09:56:21;;;;;;;11.65;2.70;;;28.10;96.60;;;;;;6194516;23;20418;-81
2022/06/23 09:59:22;;;;;;;9.52;2.83;;;28.10;96.70;;;;;;6195882;23;20016;-83
2022/06/23 10:02:27;;;;;;;13.95;3.15;;;28.40;96.10;;;;;;6074657;23;20007;-82
2022/06/23 10:05:22;;;;;;;9.18;2.45;;;28.50;95.80;;;;;;6222282;23;20011;-81
2022/06/23 10:08:12;;;;;;;7.15;2.50;;;27.90;96.10;;;;;;6192815;23;20079;-80
2022/06/23 10:10:56;;;;;;;12.75;3.83;;;28.30;95.80;;;;;;6188562;23;20414;-83
2022/06/23 10:13:46;;;;;;;13.90;4.10;;;28.50;94.70;;;;;;6189097;23;20339;-82
2022/06/23 10:16:29;;;;;;;;;;;28.60;94.90;;;;;;6191112;23;20035;-82
2022/06/23 10:19:37;;;;;;;11.18;3.10;;;28.80;94.60;;;;;;6187676;23;19939;-82
2022/06/23 10:22:32;;;;;;;8.93;3.00;;;28.90;93.50;;;;;;6187537;23;20379;-82
2022/06/23 10:25:11;;;;;;;11.15;2.92;;;28.90;93.20;;;;;;6186968;23;20012;-83
2022/06/23 10:27:55;;;;;;;11.77;4.10;;;28.80;93.10;;;;;;6217307;23;20011;-81
2022/06/23 10:30:43;;;;;;;6.88;2.50;;;28.90;92.90;;;;;;6206283;23;20000;-81
2022/06/23 10:33:21;;;;;;;10.63;2.97;;;28.80;93.00;;;;;;6219435;23;20034;-83
2022/06/23 10:36:02;;;;;;;10.95;3.08;;;28.90;93.40;;;;;;6191186;23;20439;-82
2022/06/23 10:39:04;;;;;;;12.50;3.03;;;29.00;92.60;;;;;;6190908;23;20047;-82
2022/06/23 10:41:56;;;;;;;8.07;2.78;;;29.20;92.40;;;;;;6191158;23;20001;-83
2022/06/23 10:44:58;;;;;;;10.05;3.42;;;29.30;92.40;;;;;;6191188;23;20449;-79
2022/06/23 10:48:02;;;;;;;10.65;2.72;;;29.10;91.70;;;;;;6192281;23;20005;-81
2022/06/23 10:50:43;;;;;;;10.27;2.20;;;29.20;91.60;;;;;;6192008;23;20011;-80
2022/06/23 10:53:23;;;;;;;12.07;2.55;;;29.20;91.20;;;;;;6192359;23;20012;-80
2022/06/23 10:59:36;;;;;;;9.95;2.85;;;28.70;91.50;;;;;;6219364;23;20028;-86
2022/06/23 11:02:32;;;;;;;13.73;2.60;;;29.00;91.40;;;;;;6191656;23;20005;-82
2022/06/23 11:05:34;;;;;;;7.05;2.50;;;29.10;91.30;;;;;;6191099;23;20435;-82
2022/06/23 11:08:10;;;;;;;10.73;2.50;;;29.20;91.60;;;;;;6190317;23;20023;-79
2022/06/23 11:10:45;;;;;;;8.80;2.85;;;29.40;90.60;;;;;;6216737;23;20007;-81
2022/06/23 11:13:20;;;;;;;12.60;3.00;;;29.80;89.90;;;;;;6187896;23;20043;-83
2022/06/23 11:15:55;;;;;;;13.70;2.63;;;29.90;90.10;;;;;;6189328;23;20009;-83
2022/06/23 11:18:42;;;;;;;10.43;2.92;;;30.30;88.80;;;;;;6187781;23;20446;-84
2022/06/23 11:21:38;;;;;;;13.80;3.60;;;30.30;88.40;;;;;;6187457;23;20008;-83
2022/06/23 11:24:16;;;;;;;8.73;2.75;;;30.20;87.70;;;;;;6187969;23;20312;-80
2022/06/23 11:26:47;;;;;;;10.77;2.33;;;30.30;88.30;;;;;;6186948;23;20220;-83
2022/06/23 11:29:47;;;;;;;10.80;2.92;;;30.40;88.30;;;;;;6188099;23;20019;-82
2022/06/23 11:32:31;;;;;;;;;;;30.50;87.10;;;;;;6190651;23;20011;-84
2022/06/23 11:35:06;;;;;;;11.77;2.40;;;30.50;87.50;;;;;;6192249;23;19904;-80
2022/06/23 11:37:49;;;;;;;8.15;2.72;;;31.00;84.90;;;;;;6190565;23;20005;-82
2022/06/23 11:40:45;;;;;;;7.82;2.63;;;31.10;84.50;;;;;;6188737;23;20430;-80
2022/06/23 11:43:11;;;;;;;8.48;2.60;;;;;;;;;;6215243;23;20000;-80
2022/06/23 11:45:51;;;;;;;8.65;2.58;;;31.00;84.70;;;;;;6189011;23;20396;-84
2022/06/23 11:48:35;;;;;;;10.50;2.92;;;30.60;83.00;;;;;;6187052;23;20522;-82
2022/06/23 11:51:39;;;;;;;9.50;2.45;;;30.50;83.90;;;;;;6188420;23;20032;-81
2022/06/23 11:54:19;;;;;;;11.10;3.10;;;30.20;82.40;;;;;;6215715;23;20083;-84
2022/06/23 11:56:48;;;;;;;9.00;2.72;;;30.00;85.10;;;;;;6215447;23;20004;-81
2022/06/23 11:59:40;;;;;;;11.83;3.13;;;29.70;86.30;;;;;;6215483;23;20015;-82
2022/06/23 12:02:07;;;;;;;13.90;3.33;;;29.80;86.40;;;;;;6187929;23;20244;-81
2022/06/23 12:04:59;;;;;;;11.43;2.67;;;30.00;84.90;;;;;;6189848;23;20004;-82
2022/06/23 12:07:37;;;;;;;11.23;2.78;;;30.50;84.80;;;;;;6215427;23;20024;-84
2022/06/23 12:10:25;;;;;;;9.95;2.65;;;30.60;83.10;;;;;;6189315;23;20102;-80
2022/06/23 12:12:56;;;;;;;9.52;3.53;;;30.80;81.70;;;;;;6216887;23;20015;-84
2022/06/23 12:15:25;;;;;;;12.27;3.25;;;30.90;82.40;;;;;;6187534;23;20004;-83
2022/06/23 12:18:03;;;;;;;7.13;2.08;;;30.90;81.10;;;;;;6190856;23;20001;-86
2022/06/23 12:20:56;;;;;;;12.32;2.83;;;31.00;80.70;;;;;;6191409;23;20008;-83
2022/06/23 12:23:22;;;;;;;8.30;2.75;;;;;;;;;;6191507;23;20004;-84
2022/06/23 12:26:04;;;;;;;8.70;2.58;;;30.60;81.10;;;;;;6190357;23;20075;-84
2022/06/23 12:28:39;;;;;;;8.70;2.60;;;30.60;81.50;;;;;;6217618;23;20001;-85
2022/06/23 12:31:33;;;;;;;10.15;2.58;;;30.40;82.10;;;;;;6192138;23;20004;-83
2022/06/23 12:34:18;;;;;;;11.70;2.58;;;30.50;81.90;;;;;;6190773;23;20390;-83
2022/06/23 12:36:51;;;;;;;15.02;2.88;;;30.50;82.00;;;;;;6191417;23;20016;-83
2022/06/23 12:39:47;;;;;;;10.15;2.47;;;30.40;82.20;;;;;;6191810;23;20343;-83
2022/06/23 12:42:28;;;;;;;11.88;2.42;;;30.30;78.80;;;;;;6129455;23;20020;-82
2022/06/23 12:45:20;;;;;;;8.38;2.10;;;30.30;77.10;;;;;;6191260;23;20008;-85
2022/06/23 12:48:17;;;;;;;11.05;2.95;;;30.50;77.30;;;;;;6217450;23;20011;-84
2022/06/23 12:51:17;;;;;;;7.00;2.08;;;30.90;78.30;;;;;;6192475;23;20055;-82
2022/06/23 12:53:49;;;;;;;9.73;2.53;;;31.00;77.40;;;;;;6192173;23;20005;-84
2022/06/23 12:56:31;;;;;;;9.13;2.55;;;31.20;77.20;;;;;;6192843;23;20040;-82
2022/06/23 12:59:15;;;;;;;13.02;2.70;;;31.00;76.00;;;;;;6191825;23;20331;-83
2022/06/23 13:01:55;;;;;;;11.75;2.70;;;31.00;76.40;;;;;;6194104;23;20020;-83
2022/06/23 13:04:40;;;;;;;9.25;2.40;;;30.90;75.90;;;;;;6194379;23;20004;-82
2022/06/23 13:07:25;;;;;;;8.65;2.53;;;30.90;76.40;;;;;;6190919;23;20031;-83
2022/06/23 13:10:03;;;;;;;6.95;2.13;;;30.70;77.40;;;;;;6189777;23;20055;-84
2022/06/23 13:12:34;;;;;;;8.77;2.50;;;30.70;74.90;;;;;;6191298;23;20016;-83
2022/06/23 13:15:25;;;;;;;8.27;2.72;;;30.80;75.60;;;;;;6188158;23;20000;-83
2022/06/23 13:18:02;;;;;;;7.43;2.03;;;31.00;75.70;;;;;;6188073;23;20019;-86
2022/06/23 13:20:31;;;;;;;8.13;1.83;;;;;;;;;;6189369;23;20005;-82
2022/06/23 13:22:59;;;;;;;9.55;2.25;;;31.40;74.50;;;;;;6188642;23;20243;-81
2022/06/23 13:25:37;;;;;;;11.88;4.05;;;31.40;75.10;;;;;;6190644;23;20001;-83
2022/06/23 13:28:05;;;;;;;7.97;2.20;;;31.60;73.30;;;;;;6184978;23;20008;-85
2022/06/23 13:30:47;;;;;;;7.93;2.17;;;31.50;72.00;;;;;;6188737;23;20004;-83
2022/06/23 13:33:56;;;;;;;10.18;2.30;;;31.30;72.60;;;;;;6190018;23;20059;-82
2022/06/23 13:36:39;;;;;;;8.32;2.08;;;31.00;73.70;;;;;;6190144;23;20008;-83
2022/06/23 13:39:24;;;;;;;7.95;1.90;;;30.90;74.10;;;;;;6190605;23;20009;-84
2022/06/23 13:41:53;;;;;;;6.53;2.17;;;30.80;74.60;;;;;;6217262;23;20404;-83
2022/06/23 13:44:51;;;;;;;;;;;30.90;74.60;;;;;;6191586;23;20007;-83
2022/06/23 13:47:24;;;;;;;7.50;2.13;;;31.20;73.00;;;;;;6111132;23;19922;-81
2022/06/23 13:50:09;;;;;;;9.02;2.58;;;31.40;74.10;;;;;;6192008;23;20001;-82
2022/06/23 13:52:34;;;;;;;6.68;2.05;;;31.20;72.60;;;;;;6218906;23;19997;-81
2022/06/23 13:55:12;;;;;;;8.75;2.45;;;31.30;72.90;;;;;;6193262;23;20092;-83
2022/06/23 13:57:38;;;;;;;9.82;2.13;;;;;;;;;;6216793;23;20009;-83
2022/06/23 14:00:17;;;;;;;7.75;1.95;;;31.30;71.80;;;;;;6191883;23;20035;-83
2022/06/23 14:03:12;;;;;;;5.60;1.67;;;31.30;72.30;;;;;;6190829;23;20008;-83
2022/06/23 14:05:45;;;;;;;8.73;2.42;;;31.30;72.40;;;;;;6194011;23;20012;-83
2022/06/23 14:08:11;;;;;;;9.75;2.30;;;;;;;;;;6192048;23;20008;-84
2022/06/23 14:10:37;;;;;;;9.20;2.72;;;;;;;;;;6192700;23;20001;-81
2022/06/23 14:13:14;;;;;;;7.85;2.35;;;31.60;72.50;;;;;;6217018;23;20012;-84